createdAt,value
2019-02-21T00:02:22.677Z,8.01
2019-02-21T00:04:48.988Z,7.97
2019-02-21T00:07:15.288Z,7.92
2019-02-21T00:09:41.607Z,7.94
2019-02-21T00:12:07.908Z,7.92
2019-02-21T00:14:34.211Z,7.85
2019-02-21T00:17:00.516Z,7.78
2019-02-21T00:19:26.824Z,7.81
2019-02-21T00:21:53.133Z,7.72
2019-02-21T00:24:19.466Z,7.54
2019-02-21T00:26:45.773Z,7.47
2019-02-21T00:29:12.075Z,7.51
2019-02-21T00:31:40.131Z,7.49
2019-02-21T00:34:05.741Z,7.36
2019-02-21T00:36:32.047Z,7.24
2019-02-21T00:38:58.427Z,7.12
2019-02-21T00:41:24.736Z,7.15
2019-02-21T00:43:51.049Z,7.14
2019-02-21T00:46:17.377Z,7.02
2019-02-21T00:48:43.682Z,6.84
2019-02-21T00:51:09.988Z,6.79
2019-02-21T00:53:36.292Z,6.72
2019-02-21T00:56:02.608Z,6.70
2019-02-21T00:58:28.914Z,6.60
2019-02-21T01:00:55.227Z,6.64
2019-02-21T01:03:21.539Z,6.68
2019-02-21T01:05:47.845Z,6.65
2019-02-21T01:08:14.154Z,6.62
2019-02-21T01:10:40.467Z,6.61
2019-02-21T01:13:06.812Z,6.62
2019-02-21T01:15:33.085Z,6.62
2019-02-21T01:17:59.397Z,6.68
2019-02-21T01:20:25.704Z,6.71
2019-02-21T01:22:52.013Z,6.63
2019-02-21T01:25:18.316Z,6.71
2019-02-21T01:27:44.628Z,6.72
2019-02-21T01:30:10.944Z,6.81
2019-02-21T01:32:37.260Z,6.85
2019-02-21T01:35:03.566Z,6.72
2019-02-21T01:37:29.878Z,6.74
2019-02-21T01:39:56.185Z,6.81
2019-02-21T01:42:22.492Z,6.84
2019-02-21T01:44:48.801Z,6.86
2019-02-21T01:47:15.108Z,6.81
2019-02-21T01:49:41.428Z,6.81
2019-02-21T01:52:07.739Z,6.84
2019-02-21T01:54:34.043Z,6.89
2019-02-21T01:57:00.352Z,6.96
2019-02-21T01:59:26.660Z,7.03
2019-02-21T02:01:52.969Z,7.07
2019-02-21T02:04:19.277Z,7.05
2019-02-21T02:06:45.587Z,7.07
2019-02-21T02:09:11.922Z,7.15
2019-02-21T02:11:38.220Z,7.21
2019-02-21T02:14:04.531Z,7.23
2019-02-21T02:16:30.841Z,7.24
2019-02-21T02:18:57.143Z,7.22
2019-02-21T02:21:23.455Z,7.21
2019-02-21T02:23:49.763Z,7.18
2019-02-21T02:26:16.097Z,7.10
2019-02-21T02:28:42.408Z,7.05
2019-02-21T02:31:21.541Z,7.04
2019-02-21T02:33:35.029Z,7.00
2019-02-21T02:36:01.335Z,6.95
2019-02-21T02:38:27.645Z,6.89
2019-02-21T02:40:53.960Z,6.68
2019-02-21T02:43:20.284Z,6.58
2019-02-21T02:45:46.585Z,6.61
2019-02-21T02:48:12.909Z,6.56
2019-02-21T02:50:39.203Z,6.53
2019-02-21T02:53:05.512Z,6.49
2019-02-21T02:55:31.826Z,6.43
2019-02-21T02:57:58.135Z,6.35
2019-02-21T03:00:24.446Z,6.20
2019-02-21T03:02:50.778Z,6.23
2019-02-21T03:05:17.129Z,6.25
2019-02-21T03:07:43.389Z,6.26
2019-02-21T03:10:09.699Z,6.33
2019-02-21T03:12:36.009Z,6.38
2019-02-21T03:15:02.340Z,6.39
2019-02-21T03:17:28.626Z,6.31
2019-02-21T03:19:54.937Z,6.26
2019-02-21T03:22:21.246Z,6.26
2019-02-21T03:24:47.561Z,6.25
2019-02-21T03:27:13.868Z,6.19
2019-02-21T03:29:40.198Z,6.11
2019-02-21T03:32:06.535Z,6.02
2019-02-21T03:34:32.840Z,5.96
2019-02-21T03:36:59.145Z,5.91
2019-02-21T03:39:25.484Z,5.82
2019-02-21T03:41:51.761Z,5.72
2019-02-21T03:44:18.072Z,5.62
2019-02-21T03:46:44.380Z,5.57
2019-02-21T03:49:10.687Z,5.56
2019-02-21T03:51:36.991Z,5.56
2019-02-21T03:54:03.315Z,5.54
2019-02-21T03:56:29.620Z,5.53
2019-02-21T03:58:55.934Z,5.44
2019-02-21T04:01:22.248Z,5.41
2019-02-21T04:03:48.583Z,5.29
2019-02-21T04:06:14.897Z,5.12
2019-02-21T04:08:41.214Z,5.03
2019-02-21T04:11:07.525Z,4.93
2019-02-21T04:13:33.827Z,4.86
2019-02-21T04:16:00.139Z,4.70
2019-02-21T04:18:26.446Z,4.58
2019-02-21T04:20:52.753Z,4.50
2019-02-21T04:23:19.056Z,4.46
2019-02-21T04:25:45.365Z,4.42
2019-02-21T04:28:11.665Z,4.45
2019-02-21T04:30:37.980Z,4.53
2019-02-21T04:33:04.285Z,4.62
2019-02-21T04:35:30.592Z,4.66
2019-02-21T04:37:56.940Z,4.82
2019-02-21T04:40:23.246Z,4.99
2019-02-21T04:42:49.554Z,5.23
2019-02-21T04:45:15.856Z,5.38
2019-02-21T04:47:42.165Z,5.48
2019-02-21T04:50:08.472Z,5.47
2019-02-21T04:52:34.793Z,5.40
2019-02-21T04:55:01.112Z,5.47
2019-02-21T04:57:27.430Z,5.48
2019-02-21T04:59:53.735Z,5.52
2019-02-21T05:02:28.498Z,5.45
2019-02-21T05:04:46.355Z,5.60
2019-02-21T05:07:12.660Z,5.56
2019-02-21T05:09:38.972Z,5.65
2019-02-21T05:12:05.275Z,5.55
2019-02-21T05:14:31.587Z,5.61
2019-02-21T05:17:00.528Z,5.63
2019-02-21T05:19:24.209Z,5.44
2019-02-21T05:21:50.518Z,5.57
2019-02-21T05:24:16.825Z,5.53
2019-02-21T05:26:43.142Z,5.53
2019-02-21T05:29:09.455Z,5.69
2019-02-21T05:31:35.763Z,5.62
2019-02-21T05:34:02.072Z,5.47
2019-02-21T05:36:28.382Z,5.42
2019-02-21T05:38:54.713Z,5.54
2019-02-21T05:41:21.029Z,5.64
2019-02-21T05:43:47.339Z,5.77
2019-02-21T05:46:13.645Z,5.70
2019-02-21T05:48:40.290Z,5.56
2019-02-21T05:51:06.257Z,5.59
2019-02-21T05:53:32.565Z,5.75
2019-02-21T05:55:58.872Z,5.81
2019-02-21T05:58:25.187Z,6.10
2019-02-21T06:00:51.493Z,6.36
2019-02-21T06:03:17.812Z,6.45
2019-02-21T06:05:44.126Z,6.93
2019-02-21T06:08:10.435Z,6.97
2019-02-21T06:10:36.747Z,7.03
2019-02-21T06:13:03.062Z,7.16
2019-02-21T06:15:29.367Z,7.34
2019-02-21T06:17:55.679Z,7.29
2019-02-21T06:20:21.996Z,7.44
2019-02-21T06:22:48.303Z,7.49
2019-02-21T06:25:14.617Z,7.30
2019-02-21T06:27:40.929Z,7.10
2019-02-21T06:30:07.236Z,6.87
2019-02-21T06:32:33.549Z,6.79
2019-02-21T06:35:02.404Z,7.14
2019-02-21T06:37:26.157Z,7.45
2019-02-21T06:39:52.495Z,7.56
2019-02-21T06:42:18.787Z,7.50
2019-02-21T06:44:45.104Z,7.70
2019-02-21T06:47:11.416Z,7.87
2019-02-21T06:49:37.725Z,7.94
2019-02-21T06:52:04.054Z,7.93
2019-02-21T06:54:30.353Z,8.15
2019-02-21T06:56:56.659Z,8.31
2019-02-21T06:59:23.735Z,8.31
2019-02-21T07:01:49.278Z,8.38
2019-02-21T07:04:15.587Z,8.81
2019-02-21T07:06:41.893Z,8.97
2019-02-21T07:09:08.199Z,8.65
2019-02-21T07:11:34.509Z,8.63
2019-02-21T07:14:00.829Z,8.41
2019-02-21T07:16:27.136Z,8.50
2019-02-21T07:18:53.450Z,8.49
2019-02-21T07:21:19.761Z,8.46
2019-02-21T07:23:46.067Z,8.10
2019-02-21T07:26:12.368Z,7.98
2019-02-21T07:28:40.878Z,8.04
2019-02-21T07:31:05.009Z,8.35
2019-02-21T07:33:31.338Z,8.55
2019-02-21T07:35:57.643Z,8.92
2019-02-21T07:38:23.970Z,9.05
2019-02-21T07:40:50.269Z,9.07
2019-02-21T07:43:16.593Z,9.21
2019-02-21T07:45:42.904Z,9.10
2019-02-21T07:48:09.209Z,8.79
2019-02-21T07:50:35.521Z,9.06
2019-02-21T07:53:02.830Z,9.09
2019-02-21T07:55:28.280Z,8.85
2019-02-21T07:57:54.585Z,8.49
2019-02-21T08:00:20.897Z,8.09
2019-02-21T08:02:47.227Z,7.88
2019-02-21T08:05:13.537Z,7.72
2019-02-21T08:07:39.842Z,7.59
2019-02-21T08:10:06.159Z,8.01
2019-02-21T08:12:32.505Z,8.88
2019-02-21T08:14:58.823Z,9.06
2019-02-21T08:17:27.767Z,9.86
2019-02-21T08:19:51.620Z,10.53
2019-02-21T08:22:18.043Z,10.74
2019-02-21T08:24:44.367Z,10.87
2019-02-21T08:27:10.679Z,11.29
2019-02-21T08:29:36.990Z,11.37
2019-02-21T08:32:03.310Z,11.17
2019-02-21T08:34:29.679Z,11.46
2019-02-21T08:36:55.992Z,11.42
2019-02-21T08:39:22.339Z,11.60
2019-02-21T08:41:48.651Z,11.85
2019-02-21T08:44:14.965Z,11.94
2019-02-21T08:46:41.275Z,11.87
2019-02-21T08:49:07.584Z,12.34
2019-02-21T08:51:33.897Z,12.02
2019-02-21T08:54:00.210Z,12.17
2019-02-21T08:56:26.524Z,11.56
2019-02-21T08:58:52.866Z,12.10
2019-02-21T09:01:19.255Z,12.24
2019-02-21T09:03:45.481Z,12.17
2019-02-21T09:06:13.000Z,12.45
2019-02-21T09:08:38.100Z,12.51
2019-02-21T09:11:04.454Z,12.81
2019-02-21T09:13:30.761Z,13.38
2019-02-21T09:15:57.069Z,13.63
2019-02-21T09:18:23.383Z,13.43
2019-02-21T09:20:49.754Z,12.66
2019-02-21T09:23:16.030Z,12.63
2019-02-21T09:25:42.327Z,12.39
2019-02-21T09:28:08.642Z,11.46
2019-02-21T09:30:34.954Z,11.22
2019-02-21T09:33:01.263Z,11.37
2019-02-21T09:35:27.626Z,12.16
2019-02-21T09:37:53.939Z,12.62
2019-02-21T09:40:20.248Z,13.24
2019-02-21T09:42:46.587Z,13.45
2019-02-21T09:45:14.827Z,13.09
2019-02-21T09:47:39.200Z,13.22
2019-02-21T09:50:05.505Z,12.89
2019-02-21T09:52:31.842Z,12.27
2019-02-21T09:54:58.149Z,13.21
2019-02-21T09:57:24.477Z,13.06
2019-02-21T09:59:50.786Z,12.74
2019-02-21T10:02:17.113Z,12.76
2019-02-21T10:04:43.416Z,13.00
2019-02-21T10:07:09.737Z,12.50
2019-02-21T10:09:36.136Z,12.28
2019-02-21T10:12:03.300Z,12.53
2019-02-21T10:14:28.656Z,12.98
2019-02-21T10:16:54.970Z,13.72
2019-02-21T10:19:21.277Z,13.85
2019-02-21T10:21:47.603Z,12.42
2019-02-21T10:24:13.907Z,12.64
2019-02-21T10:26:40.219Z,13.15
2019-02-21T10:29:06.523Z,13.98
2019-02-21T10:31:32.847Z,14.19
2019-02-21T10:33:59.223Z,13.82
2019-02-21T10:36:25.459Z,13.73
2019-02-21T10:38:51.767Z,13.37
2019-02-21T10:41:18.079Z,13.76
2019-02-21T10:43:44.398Z,14.48
2019-02-21T10:46:10.709Z,14.71
2019-02-21T10:48:37.019Z,14.12
2019-02-21T10:51:03.332Z,14.30
2019-02-21T10:53:29.643Z,14.31
2019-02-21T10:55:55.944Z,14.66
2019-02-21T10:58:22.259Z,14.87
2019-02-21T11:00:48.574Z,15.07
2019-02-21T11:03:14.880Z,15.07
2019-02-21T11:05:41.187Z,15.04
2019-02-21T11:08:07.497Z,15.03
2019-02-21T11:10:33.804Z,14.97
2019-02-21T11:13:00.115Z,15.07
2019-02-21T11:15:26.427Z,14.62
2019-02-21T11:17:52.743Z,14.35
2019-02-21T11:20:19.059Z,13.63
2019-02-21T11:22:45.370Z,13.42
2019-02-21T11:25:11.677Z,14.14
2019-02-21T11:27:37.993Z,14.32
2019-02-21T11:30:04.300Z,14.11
2019-02-21T11:32:30.624Z,14.48
2019-02-21T11:35:05.763Z,14.93
2019-02-21T11:37:23.257Z,14.95
2019-02-21T11:39:49.568Z,14.95
2019-02-21T11:42:15.872Z,14.98
2019-02-21T11:44:42.192Z,15.45
2019-02-21T11:47:08.508Z,15.32
2019-02-21T11:49:34.825Z,15.45
2019-02-21T11:52:09.786Z,15.33
2019-02-21T11:54:27.541Z,15.39
2019-02-21T11:56:53.757Z,14.93
2019-02-21T11:59:20.122Z,14.18
2019-02-21T12:01:46.371Z,14.07
2019-02-21T12:04:12.685Z,14.18
2019-02-21T12:06:38.999Z,14.55
2019-02-21T12:09:05.310Z,14.80
2019-02-21T12:11:31.609Z,15.01
2019-02-21T12:13:57.921Z,15.25
2019-02-21T12:16:24.228Z,15.30
2019-02-21T12:18:50.551Z,14.98
2019-02-21T12:21:16.856Z,15.28
2019-02-21T12:23:43.164Z,15.36
2019-02-21T12:26:09.474Z,15.24
2019-02-21T12:28:35.785Z,15.61
2019-02-21T12:31:02.187Z,15.85
2019-02-21T12:33:28.411Z,15.83
2019-02-21T12:35:54.712Z,15.47
2019-02-21T12:38:21.047Z,15.61
2019-02-21T12:40:47.354Z,15.33
2019-02-21T12:43:13.665Z,15.36
2019-02-21T12:45:39.979Z,15.18
2019-02-21T12:48:06.285Z,15.36
2019-02-21T12:50:43.649Z,15.43
2019-02-21T12:52:58.899Z,15.69
2019-02-21T12:55:29.245Z,15.83
2019-02-21T12:57:51.517Z,15.54
2019-02-21T13:00:17.827Z,15.49
2019-02-21T13:02:44.139Z,15.24
2019-02-21T13:05:10.450Z,14.97
2019-02-21T13:07:36.767Z,15.00
2019-02-21T13:10:03.081Z,15.10
2019-02-21T13:12:29.404Z,15.04
2019-02-21T13:14:55.714Z,15.16
2019-02-21T13:17:22.022Z,15.01
2019-02-21T13:19:48.341Z,14.84
2019-02-21T13:22:14.648Z,14.86
2019-02-21T13:24:40.956Z,14.71
2019-02-21T13:27:07.269Z,14.57
2019-02-21T13:29:33.578Z,14.40
2019-02-21T13:31:59.888Z,14.76
2019-02-21T13:34:26.216Z,14.54
2019-02-21T13:36:52.512Z,14.33
2019-02-21T13:39:18.828Z,14.12
2019-02-21T13:41:45.132Z,13.95
2019-02-21T13:44:11.445Z,13.81
2019-02-21T13:46:40.863Z,13.36
2019-02-21T13:49:04.055Z,12.90
2019-02-21T13:51:30.365Z,12.54
2019-02-21T13:53:56.689Z,12.58
2019-02-21T13:56:22.998Z,12.54
2019-02-21T13:58:49.323Z,12.41
2019-02-21T14:01:15.621Z,12.35
2019-02-21T14:03:41.936Z,12.41
2019-02-21T14:06:08.254Z,12.43
2019-02-21T14:08:34.563Z,12.49
2019-02-21T14:11:00.878Z,12.27
2019-02-21T14:13:27.190Z,12.01
2019-02-21T14:15:53.492Z,11.91
2019-02-21T14:18:19.805Z,11.90
2019-02-21T14:20:46.121Z,11.84
2019-02-21T14:23:12.427Z,11.92
2019-02-21T14:25:41.089Z,11.74
2019-02-21T14:28:05.040Z,11.70
2019-02-21T14:30:31.353Z,11.67
2019-02-21T14:32:57.996Z,11.71
2019-02-21T14:35:24.300Z,11.60
2019-02-21T14:37:50.609Z,11.51
2019-02-21T14:40:16.921Z,11.29
2019-02-21T14:42:43.224Z,11.21
2019-02-21T14:45:12.177Z,11.20
2019-02-21T14:47:35.845Z,11.24
2019-02-21T14:50:04.565Z,11.21
2019-02-21T14:52:28.463Z,11.07
2019-02-21T14:54:54.772Z,11.06
2019-02-21T14:57:21.082Z,11.05
2019-02-21T14:59:47.393Z,10.98
2019-02-21T15:02:13.697Z,10.94
2019-02-21T15:04:40.008Z,10.87
2019-02-21T15:07:06.684Z,10.82
2019-02-21T15:09:32.650Z,10.79
2019-02-21T15:11:58.957Z,10.78
2019-02-21T15:14:25.261Z,10.70
2019-02-21T15:16:51.574Z,10.70
2019-02-21T15:19:17.881Z,10.61
2019-02-21T15:21:44.209Z,10.58
2019-02-21T15:24:12.993Z,10.51
2019-02-21T15:26:36.837Z,10.44
2019-02-21T15:29:03.154Z,10.41
2019-02-21T15:31:29.551Z,10.41
2019-02-21T15:33:55.856Z,10.35
2019-02-21T15:36:22.166Z,10.26
2019-02-21T15:38:48.476Z,10.23
2019-02-21T15:41:14.785Z,10.22
2019-02-21T15:43:41.094Z,10.16
2019-02-21T15:46:07.578Z,10.14
2019-02-21T15:48:33.718Z,10.04
2019-02-21T15:51:00.023Z,9.99
2019-02-21T15:53:26.328Z,9.94
2019-02-21T15:55:52.643Z,9.91
2019-02-21T15:58:18.948Z,9.81
2019-02-21T16:00:45.259Z,9.71
2019-02-21T16:03:11.565Z,9.68
2019-02-21T16:05:37.881Z,9.64
2019-02-21T16:08:04.190Z,9.60
2019-02-21T16:10:30.524Z,9.53
2019-02-21T16:12:57.115Z,9.48
2019-02-21T16:15:23.172Z,9.47
2019-02-21T16:17:49.477Z,9.41
2019-02-21T16:20:15.800Z,9.36
2019-02-21T16:22:42.086Z,9.34
2019-02-21T16:25:08.395Z,9.31
2019-02-21T16:27:34.701Z,9.23
2019-02-21T16:30:01.008Z,9.13
2019-02-21T16:32:27.319Z,9.05
2019-02-21T16:34:53.662Z,9.02
2019-02-21T16:37:19.954Z,9.03
2019-02-21T16:39:46.260Z,8.99
2019-02-21T16:42:12.572Z,8.95
2019-02-21T16:44:38.885Z,8.93
2019-02-21T16:47:05.818Z,8.84
2019-02-21T16:49:31.499Z,8.77
2019-02-21T16:51:57.809Z,8.69
2019-02-21T16:54:24.112Z,8.64
2019-02-21T16:56:50.416Z,8.60
2019-02-21T16:59:16.724Z,8.53
2019-02-21T17:01:43.045Z,8.54
2019-02-21T17:04:09.356Z,8.54
2019-02-21T17:06:35.666Z,8.54
2019-02-21T17:09:01.971Z,8.50
2019-02-21T17:11:28.290Z,8.52
2019-02-21T17:13:54.592Z,8.44
2019-02-21T17:16:20.903Z,8.45
2019-02-21T17:18:47.210Z,8.53
2019-02-21T17:21:13.513Z,8.95
2019-02-21T17:23:39.827Z,9.06
2019-02-21T17:26:06.130Z,8.89
2019-02-21T17:28:32.430Z,9.01
2019-02-21T17:30:58.734Z,9.12
2019-02-21T17:33:25.052Z,9.01
2019-02-21T17:35:51.356Z,9.10
2019-02-21T17:38:17.665Z,8.80
2019-02-21T17:40:43.972Z,8.54
2019-02-21T17:43:10.285Z,8.58
2019-02-21T17:45:36.594Z,8.39
2019-02-21T17:48:02.905Z,8.23
2019-02-21T17:50:29.218Z,8.16
2019-02-21T17:52:55.546Z,8.15
2019-02-21T17:55:21.847Z,8.11
2019-02-21T17:57:48.160Z,8.10
2019-02-21T18:00:17.051Z,8.01
2019-02-21T18:02:40.790Z,7.97
2019-02-21T18:05:07.079Z,7.91
2019-02-21T18:07:36.413Z,7.88
2019-02-21T18:09:59.689Z,7.87
2019-02-21T18:12:25.994Z,7.90
2019-02-21T18:14:52.300Z,7.89
2019-02-21T18:17:18.606Z,7.87
2019-02-21T18:19:44.910Z,7.85
2019-02-21T18:22:11.258Z,7.84
2019-02-21T18:24:37.570Z,7.80
2019-02-21T18:27:03.902Z,7.77
2019-02-21T18:29:30.212Z,7.76
2019-02-21T18:31:56.516Z,7.83
2019-02-21T18:34:22.815Z,7.86
2019-02-21T18:36:49.119Z,7.87
2019-02-21T18:39:15.443Z,7.88
2019-02-21T18:41:41.748Z,7.86
2019-02-21T18:44:08.089Z,7.75
2019-02-21T18:46:34.397Z,7.72
2019-02-21T18:49:00.700Z,7.79
2019-02-21T18:51:27.333Z,7.81
2019-02-21T18:53:53.646Z,7.84
2019-02-21T18:56:19.955Z,7.85
2019-02-21T18:58:46.260Z,7.85
2019-02-21T19:01:12.571Z,7.87
2019-02-21T19:03:38.882Z,7.83
2019-02-21T19:06:05.227Z,7.79
2019-02-21T19:08:31.537Z,7.73
2019-02-21T19:10:57.843Z,7.70
2019-02-21T19:13:24.152Z,7.63
2019-02-21T19:15:50.456Z,7.61
2019-02-21T19:18:16.777Z,7.54
2019-02-21T19:20:43.083Z,7.49
2019-02-21T19:23:09.396Z,7.47
2019-02-21T19:25:35.738Z,7.40
2019-02-21T19:28:02.050Z,7.39
2019-02-21T19:30:28.441Z,7.36
2019-02-21T19:32:54.679Z,7.36
2019-02-21T19:35:20.984Z,7.32
2019-02-21T19:37:47.290Z,7.30
2019-02-21T19:40:13.614Z,7.30
2019-02-21T19:42:39.968Z,7.28
2019-02-21T19:45:06.279Z,7.24
2019-02-21T19:47:32.584Z,7.22
2019-02-21T19:49:58.889Z,7.23
2019-02-21T19:52:25.191Z,7.26
2019-02-21T19:54:51.509Z,7.29
2019-02-21T19:57:17.852Z,7.22
2019-02-21T19:59:44.284Z,7.21
2019-02-21T20:02:10.630Z,7.35
2019-02-21T20:04:36.939Z,7.52
2019-02-21T20:07:03.249Z,7.54
2019-02-21T20:09:29.558Z,7.26
2019-02-21T20:11:55.871Z,7.13
2019-02-21T20:14:22.188Z,7.07
2019-02-21T20:16:48.539Z,7.01
2019-02-21T20:19:14.847Z,6.99
2019-02-21T20:21:41.152Z,6.97
2019-02-21T20:24:07.455Z,6.95
2019-02-21T20:26:33.771Z,6.89
2019-02-21T20:29:00.080Z,6.86
2019-02-21T20:31:26.384Z,6.85
2019-02-21T20:33:52.692Z,6.79
2019-02-21T20:36:18.995Z,6.77
2019-02-21T20:38:45.298Z,6.78
2019-02-21T20:41:11.615Z,6.72
2019-02-21T20:43:37.925Z,6.71
2019-02-21T20:46:04.232Z,6.71
2019-02-21T20:48:30.725Z,6.72
2019-02-21T20:50:57.426Z,6.67
2019-02-21T20:53:23.174Z,6.67
2019-02-21T20:55:49.483Z,6.68
2019-02-21T20:58:15.788Z,6.67
2019-02-21T21:00:42.118Z,6.67
2019-02-21T21:03:08.421Z,6.68
2019-02-21T21:05:34.728Z,6.65
2019-02-21T21:08:01.036Z,6.65
2019-02-21T21:10:27.345Z,6.70
2019-02-21T21:12:53.656Z,6.72
2019-02-21T21:15:19.960Z,6.71
2019-02-21T21:17:46.273Z,6.70
2019-02-21T21:20:16.462Z,6.60
2019-02-21T21:22:38.884Z,6.63
2019-02-21T21:25:05.189Z,6.66
2019-02-21T21:27:31.495Z,6.77
2019-02-21T21:29:57.800Z,6.89
2019-02-21T21:32:24.111Z,6.89
2019-02-21T21:34:50.423Z,6.84
2019-02-21T21:37:16.734Z,6.77
2019-02-21T21:39:43.039Z,6.77
2019-02-21T21:42:09.356Z,6.71
2019-02-21T21:44:35.660Z,6.60
2019-02-21T21:47:01.964Z,6.52
2019-02-21T21:49:28.277Z,6.48
2019-02-21T21:51:54.579Z,6.54
2019-02-21T21:54:20.886Z,6.58
2019-02-21T21:56:47.192Z,6.54
2019-02-21T21:59:13.499Z,6.47
2019-02-21T22:01:39.817Z,6.41
2019-02-21T22:04:06.121Z,6.34
2019-02-21T22:06:32.429Z,6.10
2019-02-21T22:09:04.689Z,5.98
2019-02-21T22:11:25.075Z,5.88
2019-02-21T22:13:51.395Z,5.72
2019-02-21T22:16:17.734Z,5.66
2019-02-21T22:18:44.053Z,5.63
2019-02-21T22:21:10.386Z,5.31
2019-02-21T22:23:36.745Z,4.82
2019-02-21T22:26:03.040Z,4.37
2019-02-21T22:28:29.372Z,3.86
2019-02-21T22:30:57.944Z,3.61
2019-02-21T22:33:22.026Z,3.48
2019-02-21T22:35:48.352Z,3.32
2019-02-21T22:38:14.695Z,3.14
2019-02-21T22:40:41.013Z,3.05
2019-02-21T22:43:07.335Z,3.03
2019-02-21T22:45:33.665Z,3.11
2019-02-21T22:47:59.986Z,3.13
2019-02-21T22:50:26.944Z,3.14
2019-02-21T22:52:52.640Z,3.17
2019-02-21T22:55:18.969Z,3.25
2019-02-21T22:57:45.291Z,3.29
2019-02-21T23:00:11.615Z,3.39
2019-02-21T23:02:37.944Z,3.65
2019-02-21T23:05:04.277Z,3.70
2019-02-21T23:07:30.600Z,3.74
2019-02-21T23:09:56.917Z,3.81
2019-02-21T23:12:23.238Z,3.75
2019-02-21T23:14:49.563Z,3.68
2019-02-21T23:17:15.887Z,3.71
2019-02-21T23:19:42.195Z,3.72
2019-02-21T23:22:08.499Z,3.67
2019-02-21T23:24:34.818Z,3.74
2019-02-21T23:27:01.130Z,3.39
2019-02-21T23:29:27.436Z,2.83
2019-02-21T23:31:53.745Z,2.66
2019-02-21T23:34:20.072Z,2.88
2019-02-21T23:36:46.383Z,2.94
2019-02-21T23:39:12.691Z,2.99
2019-02-21T23:41:38.998Z,2.94
2019-02-21T23:44:05.312Z,2.82
2019-02-21T23:46:31.623Z,2.85
2019-02-21T23:48:57.928Z,2.72
2019-02-21T23:51:24.273Z,2.64
2019-02-21T23:53:50.584Z,2.59
2019-02-21T23:56:16.892Z,2.56
2019-02-21T23:58:43.206Z,2.53
